Time;durP1;ratioP1;P1;durP2;ratioP2;P2;SDS_P1;SDS_P2;PMS_P1;PMS_P2;Temp;Humidity;BMP_temperature;BMP_pressure;BME280_temperature;BME280_humidity;BME280_pressure;Samples;Min_cycle;Max_cycle;Signal;HPM_P1;HPM_P2
2024/01/09 00:00:35;;;;;;;80.15;25.02;;;;;;;;;;6268715;28;20037;-61
2024/01/09 00:03:55;;;;;;;72.82;24.13;;;;;;;;;;6267182;28;20494;-61
2024/01/09 00:06:56;;;;;;;68.38;21.35;;;;;;;;;;6268296;28;20052;-61
2024/01/09 00:09:57;;;;;;;61.42;22.92;;;;;;;;;;6273980;28;20471;-61
2024/01/09 00:12:58;;;;;;;75.43;24.38;;;;;;;;;;6265080;28;20068;-60
2024/01/09 00:15:59;;;;;;;74.43;22.90;;;;;;;;;;6271054;28;20080;-61
2024/01/09 00:19:00;;;;;;;72.55;23.52;;;;;;;;;;6291810;28;20044;-62
2024/01/09 00:22:02;;;;;;;63.72;22.40;;;;;;;;;;6291461;28;20052;-61
2024/01/09 00:25:04;;;;;;;75.70;20.55;;;;;;;;;;6291461;28;20037;-61
2024/01/09 00:28:04;;;;;;;59.05;19.05;;;;;;;;;;6286091;28;20052;-61
2024/01/09 00:31:05;;;;;;;64.60;21.05;;;;;;;;;;6284454;28;20061;-62
2024/01/09 00:34:07;;;;;;;52.25;18.92;;;;;;;;;;6285589;28;20040;-61
2024/01/09 00:37:08;;;;;;;66.53;20.58;;;;;;;;;;6282645;28;20056;-61
2024/01/09 00:40:09;;;;;;;87.78;26.90;;;;;;;;;;6285966;28;20045;-61
2024/01/09 00:43:11;;;;;;;79.03;23.05;;;;;;;;;;6287613;28;20048;-61
2024/01/09 00:46:11;;;;;;;76.60;22.53;;;;;;;;;;6286437;28;20053;-61
2024/01/09 00:49:12;;;;;;;72.22;23.25;;;;;;;;;;6283817;28;20055;-61
2024/01/09 00:52:13;;;;;;;76.28;24.38;;;;;;;;;;6281885;28;20396;-62
2024/01/09 00:55:16;;;;;;;61.60;22.02;;;;;;;;;;6285261;28;20051;-60
2024/01/09 00:58:16;;;;;;;72.65;23.00;;;;;;;;;;6283009;28;20051;-61
2024/01/09 01:01:17;;;;;;;77.93;23.92;;;;;;;;;;6286174;28;20487;-61
2024/01/09 01:04:18;;;;;;;76.07;23.60;;;;;;;;;;6283196;28;20114;-62
2024/01/09 01:07:19;;;;;;;69.88;21.73;;;;;;;;;;6284953;28;20045;-61
2024/01/09 01:10:19;;;;;;;77.35;23.80;;;;;;;;;;6282652;28;21702;-61
2024/01/09 01:13:20;;;;;;;78.70;24.33;;;;;;;;;;6281665;28;20044;-61
2024/01/09 01:16:21;;;;;;;79.43;24.08;;;;;;;;;;6282814;28;20506;-61
2024/01/09 01:19:22;;;;;;;75.95;23.13;;;;;;;;;;6284773;28;20051;-59
2024/01/09 01:22:22;;;;;;;81.18;23.95;;;;;;;;;;6281962;28;20055;-61
2024/01/09 01:25:23;;;;;;;82.65;25.00;;;;;;;;;;6284652;28;20404;-60
2024/01/09 01:28:24;;;;;;;91.03;25.98;;;;;;;;;;6285720;28;20484;-61
2024/01/09 01:31:24;;;;;;;73.75;22.85;;;;;;;;;;6284351;28;20052;-61
2024/01/09 01:34:25;;;;;;;69.88;22.92;;;;;;;;;;6284093;28;20112;-60
2024/01/09 01:37:26;;;;;;;74.63;22.55;;;;;;;;;;6283669;28;20048;-60
2024/01/09 01:40:26;;;;;;;72.70;24.83;;;;;;;;;;6282402;28;20655;-62
2024/01/09 01:43:27;;;;;;;78.05;23.80;;;;;;;;;;6282637;28;20507;-60
2024/01/09 01:46:29;;;;;;;71.13;25.00;;;;;;;;;;6279600;28;20044;-57
2024/01/09 01:49:30;;;;;;;;;;;;;;;;;;6284402;28;20056;-61
2024/01/09 01:52:30;;;;;;;60.78;20.98;;;;;;;;;;6281846;28;19921;-61
2024/01/09 01:55:33;;;;;;;71.95;23.35;;;;;;;;;;6282115;28;20135;-60
2024/01/09 01:58:34;;;;;;;80.47;24.45;;;;;;;;;;6281319;28;20048;-61
2024/01/09 02:01:35;;;;;;;78.55;23.45;;;;;;;;;;6282306;28;20052;-61
2024/01/09 02:04:36;;;;;;;79.40;24.42;;;;;;;;;;6277919;28;20048;-61
2024/01/09 02:07:41;;;;;;;94.30;27.90;;;;;;;;;;6283984;28;20123;-61
2024/01/09 02:10:41;;;;;;;84.32;26.33;;;;;;;;;;6280645;28;20400;-61
2024/01/09 02:13:42;;;;;;;74.82;24.15;;;;;;;;;;6285132;28;20048;-59
2024/01/09 02:16:43;;;;;;;77.32;25.58;;;;;;;;;;6290057;28;20056;-60
2024/01/09 02:19:44;;;;;;;71.35;24.55;;;;;;;;;;6289781;28;20148;-60
2024/01/09 02:22:44;;;;;;;82.15;24.85;;;;;;;;;;6288409;28;20476;-61
2024/01/09 02:25:46;;;;;;;76.85;23.45;;;;;;;;;;6290193;28;20102;-61
2024/01/09 02:28:50;;;;;;;75.93;24.73;;;;;;;;;;6289253;28;20545;-60
2024/01/09 02:31:52;;;;;;;94.18;25.70;;;;;;;;;;6288858;28;20079;-61
2024/01/09 02:34:53;;;;;;;63.50;22.95;;;;;;;;;;6288395;28;20045;-62
2024/01/09 02:37:54;;;;;;;87.68;25.67;;;;;;;;;;6289952;28;20063;-60
2024/01/09 02:40:54;;;;;;;89.68;22.10;;;;;;;;;;6288557;28;20044;-59
2024/01/09 02:43:55;;;;;;;76.95;23.88;;;;;;;;;;6288270;28;20062;-60
2024/01/09 02:46:56;;;;;;;77.75;25.63;;;;;;;;;;6288876;28;20056;-60
2024/01/09 02:49:57;;;;;;;73.53;23.85;;;;;;;;;;6289547;28;20122;-60
2024/01/09 02:52:57;;;;;;;64.30;24.17;;;;;;;;;;6286976;28;20105;-59
2024/01/09 02:55:58;;;;;;;73.25;24.40;;;;;;;;;;6289323;28;20365;-60
2024/01/09 02:58:58;;;;;;;79.25;24.45;;;;;;;;;;6287924;28;20040;-62
2024/01/09 03:01:59;;;;;;;63.78;22.95;;;;;;;;;;6288413;28;20040;-61
2024/01/09 03:05:00;;;;;;;74.63;24.35;;;;;;;;;;6288844;28;20633;-60
2024/01/09 03:08:01;;;;;;;66.00;23.03;;;;;;;;;;6287965;28;20545;-60
2024/01/09 03:11:02;;;;;;;72.43;21.92;;;;;;;;;;6287921;28;20261;-61
2024/01/09 03:14:03;;;;;;;59.53;20.45;;;;;;;;;;6287460;28;20075;-61
2024/01/09 03:17:04;;;;;;;69.88;23.55;;;;;;;;;;6289172;28;20036;-61
2024/01/09 03:20:06;;;;;;;75.25;24.17;;;;;;;;;;6289269;28;20048;-61
2024/01/09 03:23:07;;;;;;;70.30;22.48;;;;;;;;;;6285965;28;20111;-61
2024/01/09 03:26:08;;;;;;;60.05;21.15;;;;;;;;;;6288103;28;20060;-61
2024/01/09 03:29:08;;;;;;;74.05;23.05;;;;;;;;;;6287794;28;20055;-60
2024/01/09 03:32:09;;;;;;;68.70;21.58;;;;;;;;;;6288116;28;20033;-60
2024/01/09 03:35:10;;;;;;;68.63;21.95;;;;;;;;;;6288052;28;20048;-59
2024/01/09 03:38:12;;;;;;;66.20;25.83;;;;;;;;;;6286791;28;20048;-61
2024/01/09 03:41:13;;;;;;;89.70;23.55;;;;;;;;;;6288269;28;20060;-61
2024/01/09 03:44:14;;;;;;;79.33;23.53;;;;;;;;;;6286018;28;20377;-61
2024/01/09 03:47:14;;;;;;;57.45;20.48;;;;;;;;;;6288735;28;20297;-61
2024/01/09 03:50:15;;;;;;;83.32;26.35;;;;;;;;;;6289220;28;20171;-61
2024/01/09 03:53:16;;;;;;;81.18;25.25;;;;;;;;;;6287475;28;20048;-60
2024/01/09 03:56:17;;;;;;;74.47;19.80;;;;;;;;;;6288865;28;20122;-60
2024/01/09 03:59:17;;;;;;;68.75;21.52;;;;;;;;;;6287672;28;20049;-60
2024/01/09 04:02:18;;;;;;;69.25;22.02;;;;;;;;;;6286317;28;20428;-61
2024/01/09 04:05:19;;;;;;;75.32;23.13;;;;;;;;;;6288068;28;20041;-59
2024/01/09 04:08:20;;;;;;;59.50;20.23;;;;;;;;;;6287496;28;20079;-60
2024/01/09 04:11:20;;;;;;;62.90;21.85;;;;;;;;;;6285788;28;20048;-60
2024/01/09 04:14:21;;;;;;;59.33;21.08;;;;;;;;;;6286292;28;20049;-60
2024/01/09 04:17:22;;;;;;;59.20;20.35;;;;;;;;;;6289453;28;20063;-61
2024/01/09 04:20:23;;;;;;;69.57;22.02;;;;;;;;;;6287844;28;20063;-60
2024/01/09 04:23:23;;;;;;;73.68;22.27;;;;;;;;;;6285662;28;20071;-60
2024/01/09 04:26:24;;;;;;;74.80;24.17;;;;;;;;;;6291360;28;20537;-60
2024/01/09 04:29:25;;;;;;;72.68;23.10;;;;;;;;;;6293854;28;20474;-61
2024/01/09 04:32:26;;;;;;;66.63;21.30;;;;;;;;;;6292704;28;20102;-61
2024/01/09 04:35:27;;;;;;;72.28;22.27;;;;;;;;;;6289756;28;20048;-61
2024/01/09 04:38:27;;;;;;;50.67;19.70;;;;;;;;;;6292994;28;20052;-62
2024/01/09 04:41:28;;;;;;;68.32;22.02;;;;;;;;;;6292209;28;20098;-60
2024/01/09 04:44:29;;;;;;;68.68;22.02;;;;;;;;;;6291589;28;20037;-61
2024/01/09 04:47:30;;;;;;;55.72;19.23;;;;;;;;;;6292352;28;20415;-59
2024/01/09 04:50:31;;;;;;;71.10;23.05;;;;;;;;;;6291857;28;20476;-61
2024/01/09 04:53:31;;;;;;;56.88;19.85;;;;;;;;;;6290965;28;20052;-59
2024/01/09 04:56:32;;;;;;;67.63;21.20;;;;;;;;;;6291974;28;20101;-61
2024/01/09 04:59:33;;;;;;;73.55;22.15;;;;;;;;;;6292182;28;20040;-60
2024/01/09 05:02:34;;;;;;;63.20;22.58;;;;;;;;;;6290437;28;20536;-62
2024/01/09 05:05:34;;;;;;;58.92;21.42;;;;;;;;;;6292175;28;20499;-61
2024/01/09 05:08:35;;;;;;;78.38;24.35;;;;;;;;;;6290241;28;20549;-59
2024/01/09 05:11:35;;;;;;;82.55;22.85;;;;;;;;;;6287655;28;20083;-58
2024/01/09 05:14:36;;;;;;;61.90;21.17;;;;;;;;;;6290087;28;20510;-60
2024/01/09 05:17:38;;;;;;;81.40;24.92;;;;;;;;;;6291608;28;20044;-57
2024/01/09 05:20:39;;;;;;;67.20;22.02;;;;;;;;;;6291605;28;20049;-61
2024/01/09 05:23:39;;;;;;;72.15;23.45;;;;;;;;;;6289847;28;20479;-61
2024/01/09 05:26:41;;;;;;;90.20;24.60;;;;;;;;;;6291037;28;20049;-61
2024/01/09 05:29:41;;;;;;;68.00;21.25;;;;;;;;;;6287430;28;20055;-60
2024/01/09 05:32:42;;;;;;;68.60;24.73;;;;;;;;;;6276797;28;20060;-61
2024/01/09 05:35:43;;;;;;;65.72;21.77;;;;;;;;;;6287629;28;20056;-59
2024/01/09 05:38:44;;;;;;;46.80;15.05;;;;;;;;;;6289306;28;20533;-62
2024/01/09 05:41:44;;;;;;;59.85;19.60;;;;;;;;;;6281477;28;20040;-62
2024/01/09 05:44:45;;;;;;;68.30;19.63;;;;;;;;;;6289559;28;20036;-62
2024/01/09 05:47:46;;;;;;;65.57;20.15;;;;;;;;;;6290650;28;20051;-61
2024/01/09 05:50:46;;;;;;;46.92;18.42;;;;;;;;;;6286750;28;20049;-61
2024/01/09 05:53:47;;;;;;;60.53;19.50;;;;;;;;;;6282439;28;20041;-58
2024/01/09 05:56:48;;;;;;;52.58;18.35;;;;;;;;;;6287380;28;20051;-60
2024/01/09 05:59:49;;;;;;;51.10;17.75;;;;;;;;;;6289624;28;20048;-61
2024/01/09 06:02:50;;;;;;;65.72;20.63;;;;;;;;;;6287451;28;20063;-62
2024/01/09 06:05:50;;;;;;;61.55;20.38;;;;;;;;;;6289926;28;20817;-60
2024/01/09 06:08:51;;;;;;;57.05;21.05;;;;;;;;;;6290481;28;20044;-61
2024/01/09 06:11:52;;;;;;;57.92;21.25;;;;;;;;;;6289337;28;20064;-62
2024/01/09 06:14:53;;;;;;;56.03;20.42;;;;;;;;;;6286098;28;20407;-61
2024/01/09 06:17:54;;;;;;;79.07;22.92;;;;;;;;;;6285225;28;20047;-60
2024/01/09 06:20:55;;;;;;;65.47;19.43;;;;;;;;;;6287223;28;20048;-61
2024/01/09 06:23:55;;;;;;;73.63;23.70;;;;;;;;;;6288425;28;20090;-61
2024/01/09 06:26:56;;;;;;;62.92;21.85;;;;;;;;;;6290225;28;20044;-61
2024/01/09 06:29:56;;;;;;;63.83;19.65;;;;;;;;;;6289757;28;20049;-61
2024/01/09 06:32:57;;;;;;;47.05;15.90;;;;;;;;;;6288381;28;20052;-61
2024/01/09 06:35:58;;;;;;;62.70;20.27;;;;;;;;;;6290148;28;20044;-61
2024/01/09 06:38:58;;;;;;;49.47;17.90;;;;;;;;;;6289654;28;20106;-61
2024/01/09 06:41:59;;;;;;;57.15;18.80;;;;;;;;;;6288435;28;20048;-61
2024/01/09 06:45:00;;;;;;;62.88;19.30;;;;;;;;;;6288318;28;20056;-60
2024/01/09 06:48:01;;;;;;;56.22;18.35;;;;;;;;;;6287960;28;20048;-61
2024/01/09 06:51:02;;;;;;;59.53;20.25;;;;;;;;;;6289179;28;20045;-61
2024/01/09 06:54:03;;;;;;;54.97;18.95;;;;;;;;;;6288436;28;20040;-60
2024/01/09 06:57:04;;;;;;;49.13;17.55;;;;;;;;;;6289465;28;20051;-61
2024/01/09 07:00:05;;;;;;;65.78;19.83;;;;;;;;;;6289304;28;20053;-62
2024/01/09 07:03:06;;;;;;;60.95;18.35;;;;;;;;;;6286122;28;20148;-60
2024/01/09 07:06:06;;;;;;;53.53;17.50;;;;;;;;;;6288677;28;20071;-59
2024/01/09 07:09:07;;;;;;;71.35;21.02;;;;;;;;;;6288604;28;20056;-55
2024/01/09 07:12:09;;;;;;;59.92;19.92;;;;;;;;;;6287713;28;20114;-61
2024/01/09 07:15:13;;;;;;;;;;;;;;;;;;6289793;28;20041;-61
2024/01/09 07:18:14;;;;;;;42.13;14.93;;;;;;;;;;6289269;28;20332;-61
2024/01/09 07:21:15;;;;;;;50.03;18.08;;;;;;;;;;6287227;28;20057;-61
2024/01/09 07:24:15;;;;;;;53.50;18.58;;;;;;;;;;6286901;28;20044;-59
2024/01/09 07:27:16;;;;;;;56.13;18.17;;;;;;;;;;6289017;28;20044;-61
2024/01/09 07:30:18;;;;;;;59.15;18.30;;;;;;;;;;6287918;28;20058;-60
2024/01/09 07:33:19;;;;;;;;;;;;;;;;;;6288288;28;20052;-61
2024/01/09 07:36:19;;;;;;;55.78;17.55;;;;;;;;;;6289846;28;19943;-61
2024/01/09 07:39:20;;;;;;;51.47;15.45;;;;;;;;;;6288758;28;20071;-61
2024/01/09 07:42:21;;;;;;;53.45;17.73;;;;;;;;;;6288075;28;20044;-60
2024/01/09 07:45:23;;;;;;;56.17;17.13;;;;;;;;;;6288699;28;20040;-60
2024/01/09 07:48:23;;;;;;;65.68;18.73;;;;;;;;;;6289362;28;20056;-58
2024/01/09 07:51:24;;;;;;;64.60;21.63;;;;;;;;;;6288343;28;20534;-60
2024/01/09 07:54:25;;;;;;;100.63;25.95;;;;;;;;;;6287877;28;20040;-60
2024/01/09 07:57:26;;;;;;;99.03;25.27;;;;;;;;;;6289936;28;20109;-61
2024/01/09 08:00:26;;;;;;;72.80;21.92;;;;;;;;;;6293422;28;20052;-61
2024/01/09 08:03:27;;;;;;;61.47;18.73;;;;;;;;;;6292197;28;20102;-61
2024/01/09 08:06:28;;;;;;;59.22;19.70;;;;;;;;;;6293686;28;20550;-61
2024/01/09 08:09:29;;;;;;;67.75;18.40;;;;;;;;;;6292164;28;20459;-61
2024/01/09 08:12:29;;;;;;;62.58;21.98;;;;;;;;;;6290274;28;20056;-59
2024/01/09 08:15:30;;;;;;;80.30;21.60;;;;;;;;;;6292979;28;20454;-60
2024/01/09 08:18:32;;;;;;;71.47;21.23;;;;;;;;;;6292267;28;20472;-61
2024/01/09 08:21:36;;;;;;;63.22;18.15;;;;;;;;;;6291897;28;20056;-60
2024/01/09 08:24:38;;;;;;;53.78;17.73;;;;;;;;;;6290489;28;20617;-60
2024/01/09 08:27:38;;;;;;;54.40;17.93;;;;;;;;;;6292740;28;20040;-59
2024/01/09 08:30:39;;;;;;;53.30;18.25;;;;;;;;;;6294429;28;20055;-61
2024/01/09 08:33:40;;;;;;;54.55;17.30;;;;;;;;;;6290402;28;20117;-61
2024/01/09 08:36:43;;;;;;;53.72;18.25;;;;;;;;;;6294489;28;20078;-61
2024/01/09 08:39:44;;;;;;;62.10;20.27;;;;;;;;;;6292674;28;20228;-61
2024/01/09 08:42:44;;;;;;;62.60;18.75;;;;;;;;;;6289831;28;20044;-57
2024/01/09 08:45:47;;;;;;;59.15;18.58;;;;;;;;;;6291470;28;20048;-62
2024/01/09 08:48:48;;;;;;;60.50;19.05;;;;;;;;;;6291904;28;20127;-59
2024/01/09 08:51:49;;;;;;;86.88;25.70;;;;;;;;;;6291705;28;20438;-62
2024/01/09 08:54:55;;;;;;;63.22;20.85;;;;;;;;;;6291400;28;20086;-60
2024/01/09 08:57:56;;;;;;;47.60;17.27;;;;;;;;;;6292658;28;20131;-60
2024/01/09 09:00:57;;;;;;;66.43;19.83;;;;;;;;;;6290790;28;20507;-59
2024/01/09 09:03:57;;;;;;;63.55;19.70;;;;;;;;;;6290470;28;20044;-61
2024/01/09 09:06:58;;;;;;;59.88;19.50;;;;;;;;;;6293430;28;20052;-61
2024/01/09 09:09:59;;;;;;;52.60;17.73;;;;;;;;;;6289802;28;20510;-60
2024/01/09 09:13:00;;;;;;;61.63;18.55;;;;;;;;;;6280493;28;20048;-61
2024/01/09 09:16:01;;;;;;;58.78;19.80;;;;;;;;;;6286366;28;20044;-61
2024/01/09 09:19:02;;;;;;;62.90;17.55;;;;;;;;;;6289411;28;21223;-59
2024/01/09 09:22:03;;;;;;;69.40;20.13;;;;;;;;;;6289116;28;20051;-60
2024/01/09 09:25:04;;;;;;;66.72;20.77;;;;;;;;;;6289692;28;20045;-60
2024/01/09 09:28:06;;;;;;;55.40;17.73;;;;;;;;;;6281567;28;20492;-62
2024/01/09 09:31:06;;;;;;;63.13;19.35;;;;;;;;;;6287388;28;20411;-60
2024/01/09 09:34:07;;;;;;;54.42;18.52;;;;;;;;;;6280697;28;20139;-61
2024/01/09 09:37:08;;;;;;;54.10;18.25;;;;;;;;;;6285855;28;20048;-58
2024/01/09 09:40:09;;;;;;;58.20;18.17;;;;;;;;;;6288292;28;20449;-62
2024/01/09 09:43:14;;;;;;;51.83;18.02;;;;;;;;;;6286190;28;20209;-61
2024/01/09 09:46:24;;;;;;;56.70;18.02;;;;;;;;;;6286428;28;20149;-61
2024/01/09 09:49:24;;;;;;;46.28;15.90;;;;;;;;;;6281998;28;20091;-60
2024/01/09 09:52:27;;;;;;;48.85;15.75;;;;;;;;;;6284434;28;21083;-61
2024/01/09 09:55:28;;;;;;;53.38;16.05;;;;;;;;;;6288392;28;20128;-59
2024/01/09 09:58:30;;;;;;;45.40;16.23;;;;;;;;;;6288385;28;20058;-61
2024/01/09 10:01:32;;;;;;;;;;;;;;;;;;6288074;28;20048;-60
2024/01/09 10:04:48;;;;;;;33.47;12.45;;;;;;;;;;6279448;28;19925;-61
2024/01/09 10:07:53;;;;;;;34.92;12.60;;;;;;;;;;6283626;28;20052;-60
2024/01/09 10:10:54;;;;;;;37.65;12.77;;;;;;;;;;6281758;28;20049;-61
2024/01/09 10:13:55;;;;;;;51.28;14.88;;;;;;;;;;6279770;28;20532;-61
2024/01/09 10:16:56;;;;;;;48.33;14.40;;;;;;;;;;6283817;28;20621;-59
2024/01/09 10:19:57;;;;;;;41.13;14.55;;;;;;;;;;6289472;28;20801;-59
2024/01/09 10:22:58;;;;;;;48.53;15.77;;;;;;;;;;6283749;28;20485;-60
2024/01/09 10:25:59;;;;;;;48.58;15.45;;;;;;;;;;6286917;28;20547;-60
2024/01/09 10:29:01;;;;;;;42.63;14.20;;;;;;;;;;6287661;28;20044;-61
2024/01/09 10:32:02;;;;;;;47.47;15.43;;;;;;;;;;6282863;28;20049;-59
2024/01/09 10:35:03;;;;;;;40.15;15.48;;;;;;;;;;6287980;28;20051;-62
2024/01/09 10:38:04;;;;;;;41.70;14.47;;;;;;;;;;6282231;28;20237;-59
2024/01/09 10:41:21;;;;;;;39.60;14.13;;;;;;;;;;6287473;28;20565;-61
2024/01/09 10:44:23;;;;;;;36.88;13.75;;;;;;;;;;6289024;28;20059;-62
2024/01/09 10:47:24;;;;;;;;;;;;;;;;;;6279657;28;20759;-60
2024/01/09 10:50:25;;;;;;;42.40;14.82;;;;;;;;;;6287476;28;19928;-60
2024/01/09 10:53:27;;;;;;;38.75;14.05;;;;;;;;;;6286689;28;20040;-61
2024/01/09 10:56:30;;;;;;;54.00;15.88;;;;;;;;;;6285828;28;20502;-60
2024/01/09 10:59:31;;;;;;;36.95;13.15;;;;;;;;;;6286740;28;20045;-61
2024/01/09 11:02:35;;;;;;;45.55;16.80;;;;;;;;;;6279503;28;20408;-60
2024/01/09 11:05:37;;;;;;;44.13;14.70;;;;;;;;;;6286618;28;20056;-59
2024/01/09 11:08:39;;;;;;;50.20;16.20;;;;;;;;;;6283478;28;20044;-61
2024/01/09 11:11:41;;;;;;;45.47;14.85;;;;;;;;;;6286849;28;20044;-61
2024/01/09 11:14:44;;;;;;;31.45;12.02;;;;;;;;;;6287399;28;20468;-61
2024/01/09 11:17:49;;;;;;;37.40;12.77;;;;;;;;;;6285684;28;20040;-62
2024/01/09 11:21:01;;;;;;;41.90;14.10;;;;;;;;;;6288036;28;20049;-60
2024/01/09 11:24:03;;;;;;;36.38;13.27;;;;;;;;;;6284758;28;20049;-62
2024/01/09 11:27:14;;;;;;;41.78;12.88;;;;;;;;;;6284359;28;20080;-62
2024/01/09 11:30:17;;;;;;;35.17;12.75;;;;;;;;;;6287409;28;20086;-62
2024/01/09 11:33:31;;;;;;;43.97;15.68;;;;;;;;;;6288936;28;20121;-62
2024/01/09 11:36:33;;;;;;;42.63;14.30;;;;;;;;;;6281100;28;20067;-61
2024/01/09 11:39:34;;;;;;;41.05;14.43;;;;;;;;;;6287349;28;20497;-61
2024/01/09 11:42:40;;;;;;;33.22;12.40;;;;;;;;;;6290470;28;20040;-60
2024/01/09 11:45:41;;;;;;;35.38;12.63;;;;;;;;;;6291611;28;20059;-61
2024/01/09 11:48:43;;;;;;;39.40;13.40;;;;;;;;;;6289480;28;20557;-61
2024/01/09 11:51:44;;;;;;;38.50;13.27;;;;;;;;;;6288469;28;20312;-62
2024/01/09 11:54:45;;;;;;;35.42;12.60;;;;;;;;;;6292487;28;20094;-60
2024/01/09 11:57:46;;;;;;;28.52;12.13;;;;;;;;;;6290461;28;20048;-61
2024/01/09 12:00:47;;;;;;;31.27;12.55;;;;;;;;;;6288892;28;20412;-61
2024/01/09 12:03:55;;;;;;;37.60;12.27;;;;;;;;;;6285299;28;20044;-61
2024/01/09 12:06:57;;;;;;;29.35;10.55;;;;;;;;;;6288939;28;20052;-60
2024/01/09 12:09:57;;;;;;;35.58;12.35;;;;;;;;;;6289783;28;20408;-61
2024/01/09 12:13:04;;;;;;;34.80;12.20;;;;;;;;;;6288454;28;20060;-60
2024/01/09 12:16:24;;;;;;;35.20;12.20;;;;;;;;;;6290340;28;20101;-61
2024/01/09 12:19:25;;;;;;;43.00;15.25;;;;;;;;;;6286842;28;20052;-59
2024/01/09 12:22:26;;;;;;;38.03;13.82;;;;;;;;;;6282381;28;20045;-60
2024/01/09 12:25:27;;;;;;;39.40;12.73;;;;;;;;;;6285042;28;20049;-60
2024/01/09 12:28:28;;;;;;;40.00;13.25;;;;;;;;;;6287958;28;20105;-60
2024/01/09 12:31:29;;;;;;;38.10;13.57;;;;;;;;;;6284347;28;20537;-61
2024/01/09 12:34:30;;;;;;;33.83;11.88;;;;;;;;;;6287382;28;20797;-60
2024/01/09 12:37:31;;;;;;;39.13;11.85;;;;;;;;;;6287279;28;20048;-61
2024/01/09 12:40:32;;;;;;;37.75;12.73;;;;;;;;;;6289587;28;20432;-61
2024/01/09 12:43:34;;;;;;;27.25;10.38;;;;;;;;;;6284921;28;20079;-61
2024/01/09 12:46:35;;;;;;;31.98;11.35;;;;;;;;;;6286684;28;20129;-62
2024/01/09 12:49:45;;;;;;;40.00;13.23;;;;;;;;;;6288612;28;20049;-61
2024/01/09 12:52:46;;;;;;;39.35;13.45;;;;;;;;;;6286366;28;20052;-61
2024/01/09 12:56:00;;;;;;;29.33;11.60;;;;;;;;;;6291636;28;20049;-60
2024/01/09 12:59:01;;;;;;;33.85;11.10;;;;;;;;;;6289399;28;20052;-61
2024/01/09 13:02:03;;;;;;;31.83;11.38;;;;;;;;;;6286328;28;20119;-62
2024/01/09 13:05:04;;;;;;;34.05;12.52;;;;;;;;;;6289812;28;20188;-60
2024/01/09 13:08:06;;;;;;;34.60;10.90;;;;;;;;;;6290093;28;20060;-61
2024/01/09 13:11:09;;;;;;;67.25;22.98;;;;;;;;;;6289068;28;20056;-62
2024/01/09 13:14:11;;;;;;;28.85;10.73;;;;;;;;;;6287914;28;20388;-59
2024/01/09 13:17:11;;;;;;;24.10;7.53;;;;;;;;;;6284609;28;20041;-62
2024/01/09 13:20:12;;;;;;;27.83;9.10;;;;;;;;;;6289383;28;20332;-62
2024/01/09 13:23:13;;;;;;;21.77;7.32;;;;;;;;;;6287183;28;20055;-60
2024/01/09 13:26:14;;;;;;;17.08;6.50;;;;;;;;;;6288058;28;20071;-60
2024/01/09 13:29:15;;;;;;;17.63;5.95;;;;;;;;;;6279515;28;20041;-61
2024/01/09 13:32:15;;;;;;;16.70;6.07;;;;;;;;;;6285398;28;20533;-61
2024/01/09 13:35:16;;;;;;;13.52;4.93;;;;;;;;;;6287004;28;20479;-61
2024/01/09 13:38:17;;;;;;;18.23;5.10;;;;;;;;;;6286454;28;20068;-60
2024/01/09 13:41:19;;;;;;;11.98;3.97;;;;;;;;;;6288687;28;20513;-61
2024/01/09 13:44:20;;;;;;;;;;;;;;;;;;6283580;28;20588;-61
2024/01/09 13:47:21;;;;;;;12.05;5.03;;;;;;;;;;6282283;28;20415;-61
2024/01/09 13:50:23;;;;;;;11.75;5.57;;;;;;;;;;6289271;28;20051;-61
2024/01/09 13:53:24;;;;;;;18.10;6.82;;;;;;;;;;6285136;28;20077;-62
2024/01/09 13:56:26;;;;;;;16.95;6.75;;;;;;;;;;6286830;28;20046;-61
2024/01/09 13:59:28;;;;;;;;;;;;;;;;;;6287227;28;20051;-61
2024/01/09 14:02:38;;;;;;;21.70;7.53;;;;;;;;;;6286842;28;19943;-62
2024/01/09 14:05:39;;;;;;;16.38;6.78;;;;;;;;;;6288871;28;20139;-61
2024/01/09 14:08:40;;;;;;;15.07;6.25;;;;;;;;;;6286533;28;20764;-62
2024/01/09 14:11:41;;;;;;;17.67;7.40;;;;;;;;;;6267704;28;20171;-61
2024/01/09 14:14:41;;;;;;;23.77;9.40;;;;;;;;;;6267075;28;20059;-62
2024/01/09 14:17:43;;;;;;;25.60;10.20;;;;;;;;;;6266921;28;20135;-62
2024/01/09 14:20:44;;;;;;;27.33;9.70;;;;;;;;;;6265502;28;20727;-61
2024/01/09 14:23:45;;;;;;;27.25;9.50;;;;;;;;;;6266070;28;20044;-59
2024/01/09 14:26:47;;;;;;;27.13;10.63;;;;;;;;;;6268632;28;20056;-61
2024/01/09 14:29:50;;;;;;;;;;;;;;;;;;6269996;28;20053;-61
2024/01/09 14:32:51;;;;;;;24.27;9.95;;;;;;;;;;6265167;28;19924;-61
2024/01/09 14:36:00;;;;;;;28.98;11.00;;;;;;;;;;6264828;28;20101;-61
2024/01/09 14:39:01;;;;;;;27.40;9.32;;;;;;;;;;6268855;28;20457;-60
2024/01/09 14:42:02;;;;;;;40.38;15.27;;;;;;;;;;6267256;28;20048;-61
2024/01/09 14:45:05;;;;;;;64.45;24.75;;;;;;;;;;6264711;28;20082;-60
2024/01/09 14:48:06;;;;;;;63.40;23.08;;;;;;;;;;6265654;28;20153;-61
2024/01/09 14:51:07;;;;;;;65.45;23.15;;;;;;;;;;6265677;28;20060;-61
2024/01/09 14:54:07;;;;;;;53.17;20.83;;;;;;;;;;6262646;28;20073;-62
2024/01/09 14:57:08;;;;;;;62.63;22.30;;;;;;;;;;6265013;28;20041;-62
2024/01/09 15:00:11;;;;;;;60.38;23.92;;;;;;;;;;6271230;28;20045;-62
2024/01/09 15:03:12;;;;;;;65.93;23.15;;;;;;;;;;6265549;28;20079;-60
2024/01/09 15:06:13;;;;;;;60.67;23.97;;;;;;;;;;6263649;28;20064;-61
2024/01/09 15:09:14;;;;;;;64.15;23.70;;;;;;;;;;6265658;28;20470;-61
2024/01/09 15:12:27;;;;;;;86.00;29.92;;;;;;;;;;6264384;28;20590;-60
2024/01/09 15:15:28;;;;;;;80.22;29.02;;;;;;;;;;6265324;28;20045;-61
2024/01/09 15:18:29;;;;;;;85.35;29.30;;;;;;;;;;6265896;28;20040;-61
2024/01/09 15:21:32;;;;;;;70.72;27.48;;;;;;;;;;6267714;28;20051;-61
2024/01/09 15:24:33;;;;;;;72.50;28.20;;;;;;;;;;6265051;28;20052;-61
2024/01/09 15:27:34;;;;;;;77.80;30.85;;;;;;;;;;6267539;28;20774;-61
2024/01/09 15:30:35;;;;;;;70.10;27.23;;;;;;;;;;6265819;28;20122;-61
2024/01/09 15:33:36;;;;;;;93.32;32.05;;;;;;;;;;6263537;28;20557;-60
2024/01/09 15:36:40;;;;;;;111.90;36.55;;;;;;;;;;6264316;28;20056;-61
2024/01/09 15:39:41;;;;;;;114.10;38.92;;;;;;;;;;6267250;28;20106;-62
2024/01/09 15:42:42;;;;;;;118.55;41.00;;;;;;;;;;6266171;28;20127;-60
2024/01/09 15:45:43;;;;;;;119.60;41.53;;;;;;;;;;6263753;28;20049;-61
2024/01/09 15:48:44;;;;;;;106.75;37.47;;;;;;;;;;6270646;28;20134;-61
2024/01/09 15:51:45;;;;;;;108.20;39.60;;;;;;;;;;6265796;28;20063;-60
2024/01/09 15:54:45;;;;;;;123.00;41.67;;;;;;;;;;6265471;28;20488;-61
2024/01/09 15:57:46;;;;;;;120.75;39.72;;;;;;;;;;6260685;28;20044;-61
2024/01/09 16:00:47;;;;;;;109.93;39.05;;;;;;;;;;6266630;28;20053;-60
2024/01/09 16:03:49;;;;;;;120.30;39.08;;;;;;;;;;6262057;28;20044;-62
2024/01/09 16:06:50;;;;;;;118.68;40.55;;;;;;;;;;6264920;28;20098;-59
2024/01/09 16:09:54;;;;;;;104.93;36.47;;;;;;;;;;6263647;28;20052;-61
2024/01/09 16:12:57;;;;;;;117.93;37.80;;;;;;;;;;6266366;28;20052;-60
2024/01/09 16:16:03;;;;;;;108.05;37.08;;;;;;;;;;6261775;28;20057;-61
2024/01/09 16:19:05;;;;;;;104.15;38.33;;;;;;;;;;6264158;28;20072;-62
2024/01/09 16:22:06;;;;;;;102.95;38.85;;;;;;;;;;6267989;28;20076;-61
2024/01/09 16:25:09;;;;;;;103.22;38.30;;;;;;;;;;6272143;28;20052;-60
2024/01/09 16:28:10;;;;;;;100.70;38.35;;;;;;;;;;6271706;28;20048;-60
2024/01/09 16:31:11;;;;;;;140.48;42.38;;;;;;;;;;6268526;28;21320;-62
2024/01/09 16:34:12;;;;;;;130.32;40.95;;;;;;;;;;6271126;28;20048;-60
2024/01/09 16:37:13;;;;;;;130.07;40.50;;;;;;;;;;6266658;28;20057;-61
2024/01/09 16:40:14;;;;;;;118.97;40.83;;;;;;;;;;6270787;28;20048;-61
2024/01/09 16:43:16;;;;;;;124.68;39.92;;;;;;;;;;6265354;28;20148;-60
2024/01/09 16:46:17;;;;;;;120.93;39.95;;;;;;;;;;6265738;28;20097;-60
2024/01/09 16:49:17;;;;;;;124.13;42.08;;;;;;;;;;6270072;28;20049;-61
2024/01/09 16:52:18;;;;;;;130.63;42.60;;;;;;;;;;6266559;28;20041;-58
2024/01/09 16:55:19;;;;;;;130.60;39.42;;;;;;;;;;6267095;28;20159;-61
2024/01/09 16:58:21;;;;;;;110.03;40.33;;;;;;;;;;6267730;28;20740;-61
2024/01/09 17:01:27;;;;;;;130.15;42.72;;;;;;;;;;6269236;28;20088;-61
2024/01/09 17:04:29;;;;;;;127.72;40.35;;;;;;;;;;6267516;28;20063;-60
2024/01/09 17:07:30;;;;;;;118.72;40.78;;;;;;;;;;6271028;28;20066;-60
2024/01/09 17:10:31;;;;;;;133.93;41.73;;;;;;;;;;6269585;28;20102;-61
2024/01/09 17:13:32;;;;;;;130.05;42.00;;;;;;;;;;6270883;28;20159;-61
2024/01/09 17:16:32;;;;;;;136.48;43.83;;;;;;;;;;6267119;28;20303;-58
2024/01/09 17:19:33;;;;;;;132.27;44.72;;;;;;;;;;6267524;28;20057;-62
2024/01/09 17:22:35;;;;;;;132.70;45.47;;;;;;;;;;6269108;28;20045;-61
2024/01/09 17:25:36;;;;;;;131.57;44.00;;;;;;;;;;6269589;28;20040;-61
2024/01/09 17:28:36;;;;;;;124.07;41.78;;;;;;;;;;6271888;28;20052;-62
2024/01/09 17:31:37;;;;;;;116.53;39.75;;;;;;;;;;6266789;28;20151;-61
2024/01/09 17:34:39;;;;;;;103.43;34.72;;;;;;;;;;6269293;28;20123;-61
2024/01/09 17:37:41;;;;;;;94.20;32.37;;;;;;;;;;6267358;28;20057;-61